Time;durP1;ratioP1;P1;durP2;ratioP2;P2;SDS_P1;SDS_P2;PMS_P1;PMS_P2;Temp;Humidity;BMP_temperature;BMP_pressure;BME280_temperature;BME280_humidity;BME280_pressure;Samples;Min_cycle;Max_cycle;Signal;HPM_P1;HPM_P2
2023/01/20 00:00:18;;;;;;;1999.90;999.90;;;1.50;99.90;;;;;;6770930;88;20282;-79
2023/01/20 00:10:19;;;;;;;1999.90;999.90;;;1.30;99.90;;;;;;6770887;87;20204;-78
2023/01/20 00:20:20;;;;;;;1999.90;999.90;;;1.40;99.90;;;;;;6762895;88;20205;-78
2023/01/20 00:30:20;;;;;;;1999.90;999.90;;;1.30;99.90;;;;;;6761340;88;20334;-78
2023/01/20 00:40:21;;;;;;;1999.90;999.90;;;1.30;99.90;;;;;;6750872;88;20198;-79
2023/01/20 00:50:21;;;;;;;1999.90;999.90;;;1.00;99.90;;;;;;6764256;88;20191;-79
2023/01/20 01:00:22;;;;;;;1999.90;999.90;;;0.80;99.90;;;;;;6768139;88;20205;-78
2023/01/20 01:10:23;;;;;;;1999.90;999.90;;;0.80;99.90;;;;;;6761523;88;20219;-78
2023/01/20 01:20:23;;;;;;;1999.90;999.90;;;0.50;99.90;;;;;;6766462;88;20626;-79
2023/01/20 01:30:24;;;;;;;1999.90;999.90;;;0.50;99.90;;;;;;6749576;88;20250;-79
2023/01/20 01:40:25;;;;;;;1999.90;999.90;;;0.60;99.90;;;;;;6770709;88;20209;-78
2023/01/20 01:50:41;;;;;;;1999.90;999.90;;;0.40;99.90;;;;;;6769911;88;20197;-78
2023/01/20 02:00:42;;;;;;;1999.90;999.90;;;0.20;99.90;;;;;;6752065;88;20701;-79
2023/01/20 02:10:43;;;;;;;1999.90;999.90;;;0.20;99.90;;;;;;6751568;88;20204;-79
2023/01/20 02:21:18;;;;;;;1999.90;999.90;;;0.00;99.90;;;;;;6753381;88;20639;-79
2023/01/20 02:31:56;;;;;;;1999.90;999.90;;;-0.10;99.90;;;;;;6756560;88;20239;-79
2023/01/20 02:41:59;;;;;;;1999.90;999.90;;;0.00;99.90;;;;;;6765813;88;20168;-78
2023/01/20 02:52:18;;;;;;;1999.90;999.90;;;-0.20;99.90;;;;;;6768867;88;20231;-78
2023/01/20 03:02:23;;;;;;;1999.90;999.90;;;-0.20;99.90;;;;;;6761176;88;20719;-79
2023/01/20 03:22:29;;;;;;;1999.90;999.90;;;0.20;99.90;;;;;;6772410;88;20215;-80
2023/01/20 03:32:31;;;;;;;1999.90;999.90;;;-0.10;99.90;;;;;;6763669;88;20912;-79
2023/01/20 03:42:40;;;;;;;1999.90;999.90;;;-0.10;99.90;;;;;;6763325;88;20632;-79
2023/01/20 03:52:48;;;;;;;1999.90;999.90;;;0.00;99.90;;;;;;6758699;88;20218;-79
2023/01/20 04:02:51;;;;;;;1999.90;999.90;;;-0.10;99.90;;;;;;6763197;88;20164;-79
2023/01/20 04:12:52;;;;;;;1999.90;999.90;;;-0.20;99.90;;;;;;6762542;88;20265;-79
2023/01/20 04:22:57;;;;;;;1999.90;999.90;;;-0.20;99.90;;;;;;6762607;88;20191;-78
2023/01/20 04:32:57;;;;;;;1999.90;999.90;;;-0.30;99.90;;;;;;6762379;88;20543;-79
2023/01/20 04:42:58;;;;;;;1999.90;999.90;;;-0.30;99.90;;;;;;6761333;88;20180;-78
2023/01/20 04:52:58;;;;;;;1999.90;999.90;;;-0.10;99.90;;;;;;6764468;88;20196;-78
2023/01/20 05:02:59;;;;;;;1999.90;999.90;;;-0.10;99.90;;;;;;6759753;88;20338;-78
2023/01/20 05:13:00;;;;;;;1999.90;999.90;;;-0.10;99.90;;;;;;6763078;88;20224;-78
2023/01/20 05:23:01;;;;;;;1999.90;999.90;;;0.00;99.90;;;;;;6762770;88;20180;-79
2023/01/20 05:33:01;;;;;;;1999.90;999.90;;;0.00;99.90;;;;;;6767391;88;20186;-79
2023/01/20 05:43:02;;;;;;;1999.90;999.90;;;0.20;99.90;;;;;;6750129;88;20490;-78
2023/01/20 05:53:02;;;;;;;1999.90;999.90;;;0.20;99.90;;;;;;6725366;88;20517;-78
2023/01/20 06:03:03;;;;;;;1999.90;999.90;;;0.30;99.90;;;;;;6730868;88;21002;-77
2023/01/20 06:13:04;;;;;;;1999.90;999.90;;;0.20;99.90;;;;;;6738385;88;20218;-78
2023/01/20 06:23:04;;;;;;;1999.90;999.90;;;0.30;99.90;;;;;;6740604;88;20688;-77
2023/01/20 06:33:09;;;;;;;1999.90;999.90;;;0.30;99.90;;;;;;6740238;88;20257;-78
2023/01/20 06:43:09;;;;;;;1999.90;999.90;;;0.20;99.90;;;;;;6730712;88;20369;-76
2023/01/20 06:53:10;;;;;;;1999.90;999.90;;;0.20;99.90;;;;;;6740182;88;20206;-77
2023/01/20 07:03:10;;;;;;;1999.90;999.90;;;0.30;99.90;;;;;;6736917;88;20346;-77
2023/01/20 07:13:11;;;;;;;1999.90;999.90;;;0.30;99.90;;;;;;6735712;88;21097;-80
2023/01/20 07:23:12;;;;;;;1999.90;999.90;;;0.20;99.90;;;;;;6737430;88;20192;-77
2023/01/20 07:33:12;;;;;;;1999.90;999.90;;;0.00;99.90;;;;;;6744526;88;20232;-76
2023/01/20 07:43:13;;;;;;;1999.90;999.90;;;0.00;99.90;;;;;;6745935;88;20212;-77
2023/01/20 07:53:14;;;;;;;1999.90;999.90;;;0.00;99.90;;;;;;6749372;88;20278;-77
2023/01/20 08:03:15;;;;;;;1999.90;999.90;;;-0.10;99.90;;;;;;6746151;88;20242;-77
2023/01/20 08:13:15;;;;;;;1999.90;999.90;;;-0.10;99.90;;;;;;6747173;88;20185;-77
2023/01/20 08:23:16;;;;;;;1999.90;999.90;;;-0.10;99.90;;;;;;6753884;87;20217;-77
2023/01/20 08:33:17;;;;;;;1999.90;999.90;;;0.00;99.90;;;;;;6746958;88;20770;-76
2023/01/20 08:43:17;;;;;;;1999.90;999.90;;;0.30;99.90;;;;;;6746304;88;20254;-76
2023/01/20 08:53:18;;;;;;;1999.90;999.90;;;0.40;99.90;;;;;;6742112;88;20338;-76
2023/01/20 09:03:19;;;;;;;1999.90;999.90;;;0.70;99.90;;;;;;6740857;88;20196;-77
2023/01/20 09:23:23;;;;;;;1999.90;999.90;;;1.50;99.90;;;;;;6734463;88;20237;-77
2023/01/20 09:33:23;;;;;;;1999.90;999.90;;;2.10;99.90;;;;;;6742664;88;20309;-75
2023/01/20 09:43:52;;;;;;;1999.90;999.90;;;2.30;99.90;;;;;;6746358;88;20188;-76
2023/01/20 09:54:03;;;;;;;1999.90;999.90;;;2.50;99.90;;;;;;6745956;88;20279;-76
2023/01/20 10:04:31;;;;;;;1999.90;999.90;;;2.90;99.90;;;;;;6742873;88;20208;-75
2023/01/20 10:14:40;;;;;;;1999.90;999.90;;;2.60;99.90;;;;;;6750620;87;21353;-76
2023/01/20 10:25:15;;;;;;;1999.90;999.90;;;2.30;99.90;;;;;;6737909;88;20301;-78
2023/01/20 10:35:19;;;;;;;1999.90;999.90;;;2.30;99.90;;;;;;6726831;88;20224;-77
2023/01/20 10:45:37;;;;;;;1999.90;999.90;;;2.40;99.90;;;;;;6736947;87;20271;-77
2023/01/20 10:56:00;;;;;;;1999.90;999.90;;;2.60;99.90;;;;;;6732107;87;20198;-75
2023/01/20 11:06:02;;;;;;;1999.90;999.90;;;3.00;99.90;;;;;;6725632;88;20777;-76
2023/01/20 11:16:12;;;;;;;1999.90;999.90;;;2.80;99.90;;;;;;6730001;87;20250;-76
2023/01/20 11:26:32;;;;;;;1999.90;999.90;;;2.60;99.90;;;;;;6749188;88;20761;-75
2023/01/20 11:36:33;;;;;;;1999.90;999.90;;;2.40;99.90;;;;;;6756190;87;20347;-76
2023/01/20 11:46:35;;;;;;;1999.90;999.90;;;2.40;99.90;;;;;;6753090;88;20314;-76
2023/01/20 11:56:41;;;;;;;1999.90;999.90;;;2.30;99.90;;;;;;6751021;88;20187;-76
2023/01/20 12:06:57;;;;;;;1999.90;999.90;;;2.10;99.90;;;;;;6750078;88;20227;-77
2023/01/20 12:17:19;;;;;;;1999.90;999.90;;;2.40;99.90;;;;;;6730735;87;20208;-77
2023/01/20 12:27:24;;;;;;;1999.90;999.90;;;2.40;99.90;;;;;;6668160;88;20333;-77
2023/01/20 12:37:42;;;;;;;1999.90;999.90;;;2.60;99.90;;;;;;6670686;88;20205;-75
2023/01/20 12:47:42;;;;;;;1999.90;999.90;;;2.50;99.90;;;;;;6671149;88;20311;-76
2023/01/20 12:57:56;;;;;;;1999.90;999.90;;;2.20;99.90;;;;;;6670812;88;20189;-77
2023/01/20 13:08:10;;;;;;;1999.90;999.90;;;2.00;99.90;;;;;;6667065;88;20224;-77
2023/01/20 13:18:22;;;;;;;1999.90;999.90;;;1.80;99.90;;;;;;6692148;88;20208;-77
2023/01/20 13:28:26;;;;;;;1999.90;999.90;;;1.80;99.90;;;;;;6716859;88;20220;-76
2023/01/20 13:38:31;;;;;;;1999.90;999.90;;;1.50;99.90;;;;;;6669629;88;20219;-75
2023/01/20 13:48:34;;;;;;;1999.90;999.90;;;1.50;99.90;;;;;;6667135;89;20249;-77
2023/01/20 13:58:35;;;;;;;1999.90;999.90;;;1.40;99.90;;;;;;6662662;89;20701;-76
2023/01/20 14:08:47;;;;;;;1999.90;999.90;;;1.20;99.90;;;;;;6669625;89;20275;-77
2023/01/20 14:18:48;;;;;;;1999.90;999.90;;;1.10;99.90;;;;;;6670125;88;20219;-76
2023/01/20 14:28:54;;;;;;;1999.90;999.90;;;1.00;99.90;;;;;;6695530;87;20191;-77
2023/01/20 14:38:57;;;;;;;1999.90;999.90;;;1.00;99.90;;;;;;6747258;88;20185;-76
2023/01/20 14:48:59;;;;;;;1999.90;999.90;;;1.00;99.90;;;;;;6750978;87;20234;-75
2023/01/20 14:58:59;;;;;;;1999.90;999.90;;;0.90;99.90;;;;;;6751413;88;20727;-76
2023/01/20 15:09:00;;;;;;;1999.90;999.90;;;0.90;99.90;;;;;;6759828;88;20211;-76
2023/01/20 15:19:28;;;;;;;1999.90;999.90;;;0.80;99.90;;;;;;6760600;78;20209;-77
2023/01/20 15:29:30;;;;;;;1999.90;999.90;;;0.80;99.90;;;;;;6735678;88;20477;-77
2023/01/20 15:39:31;;;;;;;1999.90;999.90;;;0.70;99.90;;;;;;6737527;88;20653;-76
2023/01/20 15:49:31;;;;;;;1999.90;999.90;;;0.60;99.90;;;;;;6737297;88;20193;-77
2023/01/20 15:59:32;;;;;;;1999.90;999.90;;;0.60;99.90;;;;;;6737378;88;20310;-77
2023/01/20 16:09:36;;;;;;;1999.90;999.90;;;0.60;99.90;;;;;;6741749;88;20347;-77
2023/01/20 16:19:36;;;;;;;1999.90;999.90;;;0.60;99.90;;;;;;6738710;88;20198;-77
2023/01/20 16:29:37;;;;;;;1999.90;999.90;;;0.70;99.90;;;;;;6742518;88;20368;-76
2023/01/20 16:39:37;;;;;;;1999.90;999.90;;;0.80;99.90;;;;;;6729413;88;21497;-77
2023/01/20 16:49:38;;;;;;;1999.90;999.90;;;0.80;99.90;;;;;;6731847;88;20652;-76
2023/01/20 16:59:38;;;;;;;1999.90;999.90;;;0.90;99.90;;;;;;6735886;88;20699;-76
2023/01/20 17:09:38;;;;;;;1999.90;999.90;;;1.00;99.90;;;;;;6741547;88;20274;-77
2023/01/20 17:19:39;;;;;;;1999.90;999.90;;;1.00;99.90;;;;;;6735087;88;20260;-76
2023/01/20 17:29:43;;;;;;;1999.90;999.90;;;1.00;99.90;;;;;;6734262;88;20211;-76
2023/01/20 17:39:46;;;;;;;1999.90;999.90;;;1.00;99.90;;;;;;6755850;88;21361;-76
2023/01/20 17:49:47;;;;;;;1999.90;999.90;;;1.20;99.90;;;;;;6757786;88;20361;-76
2023/01/20 17:59:48;;;;;;;1999.90;999.90;;;1.10;99.90;;;;;;6729397;88;20861;-77
2023/01/20 18:09:50;;;;;;;1999.90;999.90;;;1.10;99.90;;;;;;6731615;88;20644;-76
2023/01/20 18:19:51;;;;;;;1999.90;999.90;;;1.10;99.90;;;;;;6733487;88;20311;-76
2023/01/20 18:29:51;;;;;;;1999.90;999.90;;;1.10;99.90;;;;;;6735463;88;20296;-77
2023/01/20 18:39:52;;;;;;;1999.90;999.90;;;1.20;99.90;;;;;;6739365;88;20236;-78
2023/01/20 18:49:53;;;;;;;1999.90;999.90;;;1.20;99.90;;;;;;6730606;88;22935;-77
2023/01/20 18:59:54;;;;;;;1999.90;999.90;;;1.30;99.90;;;;;;6731213;88;20266;-76
2023/01/20 19:09:55;;;;;;;1999.90;999.90;;;1.20;99.90;;;;;;6741974;88;20226;-79
2023/01/20 19:19:56;;;;;;;1999.90;999.90;;;1.30;99.90;;;;;;6727896;88;20217;-77
2023/01/20 19:30:00;;;;;;;1999.90;999.90;;;1.20;99.90;;;;;;6732573;88;20315;-77
2023/01/20 19:40:08;;;;;;;1999.90;999.90;;;1.30;99.90;;;;;;6739011;88;20772;-76
2023/01/20 19:50:09;;;;;;;1999.90;999.90;;;1.20;99.90;;;;;;6746825;88;20210;-78
2023/01/20 20:00:11;;;;;;;1999.90;999.90;;;1.10;99.90;;;;;;6745157;88;20575;-79
2023/01/20 20:10:11;;;;;;;1999.90;999.90;;;1.00;99.90;;;;;;6733579;88;20189;-79
2023/01/20 20:20:32;;;;;;;1999.90;999.90;;;0.80;99.90;;;;;;6784006;78;20209;-79
2023/01/20 20:30:33;;;;;;;1999.90;999.90;;;0.90;99.90;;;;;;6747487;88;20673;-78
2023/01/20 20:40:34;;;;;;;1999.90;999.90;;;0.60;99.90;;;;;;6726769;88;20207;-78
2023/01/20 20:50:34;;;;;;;1999.90;999.90;;;0.50;99.90;;;;;;6740821;88;20205;-78
2023/01/20 21:00:36;;;;;;;1999.90;999.90;;;0.50;99.90;;;;;;6736872;88;20502;-78
2023/01/20 21:10:39;;;;;;;1999.90;999.90;;;0.20;99.90;;;;;;6727419;88;20222;-78
2023/01/20 21:20:39;;;;;;;1999.90;999.90;;;0.30;99.90;;;;;;6715766;78;20244;-78
2023/01/20 21:30:40;;;;;;;1999.90;999.90;;;0.30;99.90;;;;;;6704954;88;20344;-79
2023/01/20 21:40:58;;;;;;;1999.90;999.90;;;0.30;99.90;;;;;;6703978;88;20205;-78
2023/01/20 22:01:19;;;;;;;1999.90;999.90;;;0.50;99.90;;;;;;6705919;88;20787;-79
2023/01/20 22:11:19;;;;;;;1999.90;999.90;;;0.40;99.90;;;;;;6710709;88;20247;-78
2023/01/20 22:21:21;;;;;;;1999.90;999.90;;;0.40;99.90;;;;;;6706839;88;20382;-79
2023/01/20 22:31:25;;;;;;;1999.90;999.90;;;0.50;99.90;;;;;;6705879;88;20240;-79
2023/01/20 22:41:25;;;;;;;1999.90;999.90;;;0.30;99.90;;;;;;6709771;88;20677;-78
2023/01/20 22:51:28;;;;;;;1999.90;999.90;;;0.00;99.90;;;;;;6703371;88;20335;-76
2023/01/20 23:01:31;;;;;;;1999.90;999.90;;;-0.30;99.90;;;;;;6698544;88;20183;-77
2023/01/20 23:11:35;;;;;;;1999.90;999.90;;;-0.30;99.90;;;;;;6703011;88;20185;-76
2023/01/20 23:21:35;;;;;;;1999.90;999.90;;;-0.30;99.90;;;;;;6701201;88;20762;-76
2023/01/20 23:31:36;;;;;;;1999.90;999.90;;;-0.30;99.90;;;;;;6696355;88;20220;-75
2023/01/20 23:41:36;;;;;;;1999.90;999.90;;;-0.40;99.90;;;;;;6701101;88;20540;-75
2023/01/20 23:51:37;;;;;;;1999.90;999.90;;;-0.60;99.90;;;;;;6709846;88;20711;-76
